South Mills, North Carolina
Current Conditions -  °F | °C
As of 8:35 AM on Wednesday 22 Oct 2014 (Local Time) from KCPK Reporting Station
Overcast Overcast  
Wind Chill: 55°   Ceiling: 1600
Heat Index: 55°   Visibility: 10mi
Dew Point: 52°   Wind: 13mph
Humidity: 88%   Direction: 290°WNW
Pressure: 29.86"   Gusts: 16mph
Location:  36.45°N, 76.33°W
Report Text: KCPK 221235Z AUTO 29011G14KT 10SM BKN016 BKN022 OVC055 13/11 A2986 RMK AO2 LTG DSNT NE
Loading
Personal Weather Stations






























Interactive Weather Map
Tropical Storm Tracking
New forecast layout! Learn more

10-Day Weather Forecast

Advertisements
Track Severe Weather on mobile